Time,TemperatureF,DewpointF,PressureIn,WindDirection,WindDirectionDegrees,WindSpeedMPH,WindSpeedGustMPH,Humidity,HourlyPrecipIn,Conditions,Clouds,dailyrainin,SoftwareType,DateUTC
2013-03-06 00:00:00,32.5,26.7,29.80,NNE,17,1.0,5.0,79,0.00,,---,0.62,VWS V12.07,2013-03-06 05:00:00,
2013-03-06 00:30:00,32.5,25.8,29.78,NE,40,1.0,9.0,76,0.00,,---,0.00,VWS V12.07,2013-03-06 05:30:00,
2013-03-06 01:00:00,32.4,27.5,29.78,NE,42,8.0,9.0,82,0.00,,---,0.00,VWS V12.07,2013-03-06 06:00:00,
2013-03-06 01:30:00,30.7,23.1,29.79,NE,53,10.0,13.0,73,0.00,,---,0.00,VWS V12.07,2013-03-06 06:30:00,
2013-03-06 02:00:00,31.3,22.0,29.79,NE,49,3.0,5.0,68,0.00,,---,0.00,VWS V12.07,2013-03-06 07:00:00,
2013-03-06 02:30:00,29.1,25.4,29.81,NNE,32,1.0,6.0,86,0.00,,---,0.00,VWS V12.07,2013-03-06 07:30:00,
2013-03-06 03:00:00,29.0,19.8,29.80,NNE,26,4.0,14.0,68,0.00,,---,0.00,VWS V12.07,2013-03-06 08:00:00,
2013-03-06 03:30:00,28.4,19.9,29.81,NE,40,7.0,11.0,70,0.00,,---,0.00,VWS V12.07,2013-03-06 08:30:00,
2013-03-06 04:00:00,27.8,20.0,29.81,NNE,27,2.0,14.0,72,0.00,,---,0.00,VWS V12.07,2013-03-06 09:00:00,
2013-03-06 04:30:00,27.3,20.8,29.84,North,5,4.0,7.0,76,0.00,,---,0.00,VWS V12.07,2013-03-06 09:30:00,
2013-03-06 05:00:00,27.6,19.8,29.85,North,10,2.0,7.0,72,0.00,,---,0.00,VWS V12.07,2013-03-06 10:00:00,
2013-03-06 05:30:00,27.6,20.4,29.85,ENE,57,8.0,12.0,74,0.00,,---,0.00,VWS V12.07,2013-03-06 10:30:00,
2013-03-06 06:00:00,27.3,21.7,29.88,NNW,342,2.0,7.0,79,0.00,,---,0.00,VWS V12.07,2013-03-06 11:00:00,
2013-03-06 06:30:00,27.0,22.8,29.90,NE,51,4.0,6.0,84,0.00,,---,0.00,VWS V12.07,2013-03-06 11:30:00,
2013-03-06 07:00:00,26.9,23.8,29.90,NNE,28,1.0,5.0,88,0.00,,---,0.00,VWS V12.07,2013-03-06 12:00:00,
2013-03-06 07:30:00,26.9,24.1,29.92,North,5,0.0,3.0,89,0.00,,---,0.00,VWS V12.07,2013-03-06 12:30:00,
2013-03-06 08:00:00,27.0,24.5,29.93,North,9,0.0,7.0,90,0.00,,---,0.00,VWS V12.07,2013-03-06 13:00:00,
2013-03-06 08:30:00,27.5,25.5,29.95,NNE,29,3.0,9.0,92,0.00,,---,0.00,VWS V12.07,2013-03-06 13:30:00,
2013-03-06 09:00:00,28.4,26.1,29.96,NNE,23,0.0,6.0,91,0.00,,---,0.00,VWS V12.07,2013-03-06 14:00:00,
2013-03-06 09:30:00,29.1,26.0,29.97,NNW,340,9.0,12.0,88,0.00,,---,0.00,VWS V12.07,2013-03-06 14:30:00,
2013-03-06 10:00:00,29.5,25.8,29.98,NNE,17,10.0,14.0,86,0.01,,---,0.01,VWS V12.07,2013-03-06 15:00:00,
2013-03-06 10:30:00,28.8,24.9,30.00,NE,40,4.0,16.0,85,0.01,,---,0.01,VWS V12.07,2013-03-06 15:30:00,
2013-03-06 11:00:00,29.3,25.6,29.99,NE,42,7.0,18.0,86,0.00,,---,0.01,VWS V12.07,2013-03-06 16:00:00,
2013-03-06 11:30:00,29.5,25.0,30.01,NW,306,3.0,12.0,83,0.00,,---,0.01,VWS V12.07,2013-03-06 16:30:00,
2013-03-06 12:00:00,29.7,24.9,30.02,North,349,4.0,7.0,82,0.00,,---,0.01,VWS V12.07,2013-03-06 17:00:00,
2013-03-06 12:30:00,29.4,24.9,30.04,NE,50,2.0,12.0,83,0.00,,---,0.01,VWS V12.07,2013-03-06 17:30:00,
2013-03-06 13:00:00,29.4,25.2,30.06,North,350,2.0,6.0,84,0.00,,---,0.01,VWS V12.07,2013-03-06 18:00:00,
2013-03-06 13:30:00,29.5,25.0,30.06,North,9,3.0,7.0,83,0.00,,---,0.01,VWS V12.07,2013-03-06 18:30:00,
2013-03-06 14:00:00,30.0,25.2,30.06,NNE,24,4.0,9.0,82,0.00,,---,0.01,VWS V12.07,2013-03-06 19:00:00,
2013-03-06 14:30:00,29.8,25.0,30.07,NE,45,4.0,9.0,82,0.00,,---,0.01,VWS V12.07,2013-03-06 19:30:00,
2013-03-06 15:00:00,30.1,25.6,30.08,NE,34,6.0,6.0,83,0.00,,---,0.01,VWS V12.07,2013-03-06 20:00:00,
2013-03-06 15:30:00,30.6,25.8,30.09,NNE,18,3.0,12.0,82,0.00,,---,0.01,VWS V12.07,2013-03-06 20:30:00,
2013-03-06 16:00:00,30.6,26.1,30.09,NNE,19,2.0,4.0,83,0.00,,---,0.01,VWS V12.07,2013-03-06 21:00:00,
2013-03-06 16:30:00,30.7,26.2,30.11,WSW,258,0.0,2.0,83,0.00,,---,0.01,VWS V12.07,2013-03-06 21:30:00,
2013-03-06 17:00:00,30.7,26.2,30.11,West,275,0.0,3.0,83,0.00,,---,0.01,VWS V12.07,2013-03-06 22:00:00,
2013-03-06 17:30:00,30.9,26.4,30.13,North,355,3.0,10.0,83,0.00,,---,0.01,VWS V12.07,2013-03-06 22:30:00,
2013-03-06 18:00:00,30.7,26.2,30.13,North,355,0.0,9.0,83,0.00,,---,0.01,VWS V12.07,2013-03-06 23:00:00,
2013-03-06 18:30:00,30.6,26.6,30.15,NNW,346,0.0,7.0,85,0.00,,---,0.01,VWS V12.07,2013-03-06 23:30:00,
2013-03-06 19:00:00,30.4,26.4,30.15,NNE,19,0.0,5.0,85,0.00,,---,0.01,VWS V12.07,2013-03-07 00:00:00,
2013-03-06 19:30:00,30.4,26.4,30.16,North,5,0.0,5.0,85,0.00,,---,0.01,VWS V12.07,2013-03-07 00:30:00,
2013-03-06 20:00:00,30.4,26.4,30.16,NE,38,3.0,9.0,85,0.00,,---,0.01,VWS V12.07,2013-03-07 01:00:00,
2013-03-06 20:30:00,30.4,26.4,30.16,North,10,0.0,5.0,85,0.00,,---,0.01,VWS V12.07,2013-03-07 01:30:00,
2013-03-06 21:00:00,30.4,26.4,30.16,NNE,28,2.0,3.0,85,0.00,,---,0.01,VWS V12.07,2013-03-07 02:00:00,
2013-03-06 21:30:00,30.4,26.4,30.17,North,5,2.0,5.0,85,0.00,,---,0.01,VWS V12.07,2013-03-07 02:30:00,
2013-03-06 22:00:00,30.4,26.7,30.18,NE,34,2.0,2.0,86,0.00,,---,0.01,VWS V12.07,2013-03-07 03:00:00,
2013-03-06 22:30:00,30.3,26.6,30.17,North,5,0.0,4.0,86,0.00,,---,0.01,VWS V12.07,2013-03-07 03:30:00,
2013-03-06 23:00:00,30.3,26.6,30.17,North,9,0.0,5.0,86,0.00,,---,0.01,VWS V12.07,2013-03-07 04:00:00,
2013-03-06 23:30:00,30.3,26.6,30.17,NNW,344,0.0,1.0,86,0.00,,---,0.01,VWS V12.07,2013-03-07 04:30:00,